Keokuk, IA (52632)

6:32 PM CST on February 06, 2016 (GMT -0600)
KEOIA | | Change Station
CLOSE
Current Station
Personal Weather Station
Location: Keokuk, IA
Elevation: 629 ft
Nearby Weather Stations

Elev 629 ft 40.40 °N, 91.38 °W | Updated 13 seconds ago

Clear
Clear
42.7 °F
Feels Like 43 °F
N
1.0
Wind Variable Wind from South
Gusts 6.0 mph

Today
High -- | Low -- °F
--% Chance of Precip.
Yesterday
High -- | Low -- °F
Precip. -- in
Pressure 30.14 in
Visibility 10.0 miles
Clouds Clear
Windchill 43 °F
Dew Point 32 °F
Humidity 66%
Rainfall 0.00 in
Snow Depth Not available.
7:10 AM 5:29 PM
Waning Crescent, 3% visible
METAR KEOK 070015Z AUTO 24008KT 10SM CLR 06/M01 A3014 RMK AO2
Pressure 30.14 in
Visibility 10.0 miles
Clouds Clear
Windchill 43 °F
Dew Point 32 °F
Humidity 66%
Rainfall 0.00 in
Snow Depth Not available.
7:10 AM 5:29 PM
Waning Crescent, 3% visible
METAR KEOK 070015Z AUTO 24008KT 10SM CLR 06/M01 A3014 RMK AO2

10-Day Weather Forecast

Almanac

Astronomy

Feb. 06, 2016 Rise Set
Actual Time
Civil Twilight
Nautical Twilight
Astronomical Twilight
Moon
Length of Visible Light
Length of Day
Tomorrow will be .
, % of the Moon is Illuminated

Today's Extremes

State Highs State Lows

Community

WunderPhotos

Upload Photos

1,891,108 photos uploaded!

WunderBlog® & News

Nearby

Air Quality

  Air Quality AQ Index Pollutant
Not available.

Snow Depth

Station Depth Elevation

Earthquake Activity

City Distance Mag. Time & Date
Minimum magnitude displayed is 2.5.

Coastal Water Temperatures

Place Temperature

Stations

Nearby Weather Stations

Station Location Temp. Windchill Dew Point Humidity Wind Precip. Elev Updated Type
                   

Watches & Warnings

There are currently no watches in effect.